Hauptseite
METAR-TAF:

METAR-TAF

Flughäfen :

Maastricht Aachen Airport

Maastricht Aachen, Niederlande

Breite: 50-55N, Länge: 005-47E, Höhe: 114 m

Beobachtung

Neuester Wetterbericht von vor 41 Minuten, um 15:25 UTC
Wind 9 kt aus Nordost, variierte zwischen Nord und Ost
Temperatur 26°C
Luftfeuchtigkeit 42%
Luftdruck 1023 hPa
Sichtweite 10 km oder mehr

METAR: EHBK 231525Z AUTO 04009KT 360V100 9999 NSC 26/12 Q1023 NOSIG

Zeit: 18:06 (16:06 UTC)

Prognose

Neuester Wetterbericht von vor 4 Stunden und 48 Minuten, um 11:18 UTC
Gültige Prognose vom 23 um 12 UTC bis 24 um 18 UTC
Wind 5 kt aus Nordost
Sichtweite 10 km oder mehr
keine Wolken unter 1500 m und keine Kumulonimbus oder Gewitterwolken

TAF: EHBK 231118Z 2312/2418 05005KT CAVOK

Wetterbeobachtungen und Prognosen von mehr als 4000 Flughäfen (METAR und TAF Bericht).

Die verfügbaren Stationen werden durch gelbe und rote Markierungen auf der Karte dargestellt.

Führen Sie die Maus auf sie, um den Namen der Station zu sehen.

Darauf klicken, um die Beobachtung von Wetterbeobachtungen und Prognosen zu sehen.

Um die Karte zu ändern : klicken Sie auf den grünen Tasten mit einem schwarzen Kreuz Zum Vergrößern, auf den grünen Button mit einem Gedankenstrich zu verkleinern, oder auf die grünen Pfeile für benachbarte Karten.


METAR-TAF: